Time;durP1;ratioP1;P1;durP2;ratioP2;P2;SDS_P1;SDS_P2;PMS_P1;PMS_P2;Temp;Humidity;BMP_temperature;BMP_pressure;BME280_temperature;BME280_humidity;BME280_pressure;Samples;Min_cycle;Max_cycle;Signal;HPM_P1;HPM_P2
2023/02/05 00:01:24;;;;;;;5.40;3.30;;;;;;;-4.98;89.07;99972.66;106335;1283;138574;-72
2023/02/05 00:03:51;;;;;;;4.90;2.60;;;;;;;-5.05;88.77;99972.62;107634;1281;24208;-72
2023/02/05 00:06:18;;;;;;;8.00;3.50;;;;;;;-5.12;88.82;99978.08;106460;1258;138240;-72
2023/02/05 00:08:45;;;;;;;6.90;2.90;;;;;;;-5.20;88.99;99979.67;106641;1259;22535;-72
2023/02/05 00:11:12;;;;;;;5.10;2.70;;;;;;;-5.28;89.10;99982.35;106800;1276;24237;-71
2023/02/05 00:13:41;;;;;;;5.50;2.60;;;;;;;-5.37;88.65;99985.05;106780;1276;138264;-72
2023/02/05 00:16:12;;;;;;;7.00;3.00;;;;;;;-5.45;89.30;99987.23;107914;1269;22559;-73
2023/02/05 00:18:39;;;;;;;6.20;2.60;;;;;;;-5.56;88.48;99986.54;106522;1267;139471;-71
2023/02/05 00:21:07;;;;;;;4.80;2.60;;;;;;;-5.65;88.76;99992.45;106518;1276;22598;-72
2023/02/05 00:23:34;;;;;;;5.00;2.70;;;;;;;-5.73;89.16;100001.30;107146;1278;138497;-72
2023/02/05 00:26:03;;;;;;;7.70;3.00;;;;;;;-5.81;89.05;100000.10;106774;1279;22713;-72
2023/02/05 00:28:34;;;;;;;4.90;3.10;;;;;;;-5.90;89.40;100003.33;106538;1265;25274;-71
2023/02/05 00:31:07;;;;;;;6.40;3.60;;;;;;;-5.96;89.41;100008.16;106430;1279;139866;-72
2023/02/05 00:33:34;;;;;;;6.80;3.40;;;;;;;-6.02;89.79;100012.29;106661;1280;22542;-72
2023/02/05 00:36:01;;;;;;;8.20;3.60;;;;;;;-6.06;89.74;100018.93;106367;1281;138847;-72
2023/02/05 00:38:29;;;;;;;6.40;3.70;;;;;;;-6.12;89.85;100018.07;106889;1273;22530;-72
2023/02/05 00:40:56;;;;;;;8.40;2.80;;;;;;;-6.16;89.69;100016.95;106560;1280;25278;-72
2023/02/05 00:43:23;;;;;;;8.90;4.00;;;;;;;-6.22;89.77;100019.98;106523;1281;139785;-72
2023/02/05 00:45:50;;;;;;;9.00;4.90;;;;;;;-6.27;89.93;100022.37;106660;1270;25598;-72
2023/02/05 00:48:17;;;;;;;9.40;4.80;;;;;;;-6.27;90.46;100020.83;106529;1268;138739;-72
2023/02/05 00:50:46;;;;;;;11.10;4.70;;;;;;;-6.27;90.64;100020.44;106286;1265;24293;-72
2023/02/05 00:53:13;;;;;;;9.60;4.60;;;;;;;-6.25;90.96;100019.83;106327;1284;22651;-72
2023/02/05 00:55:40;;;;;;;8.20;4.40;;;;;;;-6.23;91.43;100020.88;106079;1283;138218;-72
2023/02/05 00:58:07;;;;;;;10.00;4.30;;;;;;;-6.18;92.05;100024.64;106300;1276;25502;-72
2023/02/05 01:00:34;;;;;;;12.00;4.80;;;;;;;-6.14;91.96;100018.91;106265;1283;138632;-72
2023/02/05 01:03:01;;;;;;;8.40;4.50;;;;;;;-6.11;92.24;100023.14;106321;1283;24222;-72
2023/02/05 01:05:29;;;;;;;7.10;3.80;;;;;;;-6.08;92.03;100028.09;106421;1282;138977;-72
2023/02/05 01:07:56;;;;;;;10.40;4.70;;;;;;;-6.06;92.34;100029.73;106286;1276;24212;-72
2023/02/05 01:10:24;;;;;;;9.80;5.00;;;;;;;-6.04;92.16;100027.66;106498;1278;22551;-72
2023/02/05 01:12:51;;;;;;;9.40;5.40;;;;;;;-6.01;91.82;100028.00;106658;1281;138829;-72
2023/02/05 01:15:19;;;;;;;9.00;4.20;;;;;;;-6.00;92.24;100028.27;106351;1283;22538;-72
2023/02/05 01:17:47;;;;;;;10.00;5.30;;;;;;;-5.98;92.47;100027.42;106431;1260;138715;-72
2023/02/05 01:20:15;;;;;;;12.80;6.30;;;;;;;-5.97;92.28;100028.42;106368;1283;23222;-72
2023/02/05 01:22:42;;;;;;;11.10;4.70;;;;;;;-5.96;92.21;100029.36;106558;1279;22597;-72
2023/02/05 01:25:09;;;;;;;12.20;4.50;;;;;;;-5.95;92.05;100026.70;106269;1283;138534;-72
2023/02/05 01:27:36;;;;;;;9.00;4.50;;;;;;;-5.93;92.07;100028.43;106359;1265;24225;-73
2023/02/05 01:30:05;;;;;;;6.80;3.40;;;;;;;-5.92;91.99;100021.30;106481;1273;138689;-72
2023/02/05 01:32:32;;;;;;;11.80;5.10;;;;;;;-5.91;91.78;100025.66;106467;1282;24262;-72
2023/02/05 01:34:59;;;;;;;8.40;4.60;;;;;;;-5.90;91.65;100025.28;106506;1282;22549;-72
2023/02/05 01:37:26;;;;;;;8.60;4.60;;;;;;;-5.88;92.00;100026.41;106418;1281;139974;-72
2023/02/05 01:39:53;;;;;;;7.70;3.70;;;;;;;-5.87;92.40;100029.83;106342;1275;23360;-72
2023/02/05 01:42:25;;;;;;;7.70;3.80;;;;;;;-5.83;92.03;100032.62;106288;1281;138446;-72
2023/02/05 01:45:20;;;;;;;6.30;3.50;;;;;;;-5.81;92.27;100031.89;106456;1282;26003;-72
2023/02/05 01:47:49;;;;;;;8.20;3.80;;;;;;;-5.78;92.36;100026.25;106232;1279;138632;-72
2023/02/05 01:50:20;;;;;;;7.80;4.20;;;;;;;-5.77;92.29;100023.70;106527;1263;22583;-72
2023/02/05 01:52:47;;;;;;;7.50;3.00;;;;;;;-5.76;92.13;100024.32;106314;1284;25348;-72
2023/02/05 01:55:15;;;;;;;7.00;3.80;;;;;;;-5.75;92.27;100024.12;106344;1281;138327;-72
2023/02/05 01:57:42;;;;;;;8.40;4.20;;;;;;;-5.74;92.03;100020.49;106466;1266;22548;-72
2023/02/05 02:00:10;;;;;;;7.70;4.10;;;;;;;-5.73;92.03;100024.34;106245;1276;138497;-72
2023/02/05 02:02:43;;;;;;;12.00;4.60;;;;;;;-5.71;92.12;100031.08;106490;1283;24374;-72
2023/02/05 02:05:13;;;;;;;8.70;4.10;;;;;;;-5.69;92.30;100027.63;106613;1283;25336;-72
2023/02/05 02:07:41;;;;;;;7.60;4.00;;;;;;;-5.68;91.93;100028.03;106406;1279;138419;-72
2023/02/05 02:10:13;;;;;;;9.30;4.70;;;;;;;-5.67;92.10;100029.40;106403;1276;22646;-72
2023/02/05 02:12:42;;;;;;;10.30;4.60;;;;;;;-5.67;91.93;100030.83;106439;1282;138694;-72
2023/02/05 02:15:17;;;;;;;;;;;;;;;-5.66;92.00;100034.84;106715;1282;22535;-72
2023/02/05 02:17:47;;;;;;;6.30;2.80;;;;;;;-5.65;92.11;100037.43;106574;1279;125041;-72
2023/02/05 02:20:26;;;;;;;9.10;4.10;;;;;;;-5.66;92.33;100034.79;106419;1268;25233;-72
2023/02/05 02:22:53;;;;;;;11.00;5.00;;;;;;;-5.66;91.96;100031.80;106387;1282;22562;-72
2023/02/05 02:25:30;;;;;;;13.70;5.40;;;;;;;-5.66;91.98;100033.05;106495;1282;138593;-72
2023/02/05 02:28:15;;;;;;;6.00;3.60;;;;;;;-5.67;91.59;100034.68;106573;1282;22564;-72
2023/02/05 02:30:55;;;;;;;8.80;5.70;;;;;;;-5.67;91.92;100039.64;106524;1276;138915;-72
2023/02/05 02:33:30;;;;;;;8.40;5.10;;;;;;;-5.67;91.60;100042.11;106547;1281;22656;-72
2023/02/05 02:36:20;;;;;;;11.00;4.60;;;;;;;-5.65;91.43;100045.55;106534;1281;138479;-72
2023/02/05 02:39:00;;;;;;;9.00;4.60;;;;;;;-5.65;91.28;100042.86;106669;1281;22569;-72
2023/02/05 02:41:41;;;;;;;11.00;4.70;;;;;;;-5.63;90.70;100044.89;106404;1267;138684;-72
2023/02/05 02:44:24;;;;;;;7.40;4.10;;;;;;;-5.63;90.44;100037.94;106644;1282;24292;-72
2023/02/05 02:46:55;;;;;;;7.20;4.10;;;;;;;-5.62;90.65;100047.61;106659;1282;22642;-72
2023/02/05 02:49:32;;;;;;;8.40;4.00;;;;;;;-5.61;90.19;100045.13;106679;1277;138384;-73
2023/02/05 02:52:03;;;;;;;9.90;4.90;;;;;;;-5.60;90.09;100041.70;106579;1264;24292;-72
2023/02/05 02:54:34;;;;;;;6.90;4.10;;;;;;;-5.60;89.77;100046.66;106574;1281;139732;-72
2023/02/05 02:57:05;;;;;;;13.20;4.80;;;;;;;-5.61;89.57;100048.30;106710;1281;23173;-72
2023/02/05 02:59:35;;;;;;;9.30;4.80;;;;;;;-5.62;88.96;100047.84;106521;1270;139552;-72
2023/02/05 03:02:04;;;;;;;7.50;4.40;;;;;;;-5.63;89.06;100053.20;106633;1263;24329;-72
2023/02/05 03:04:41;;;;;;;8.50;4.10;;;;;;;-5.64;89.22;100054.51;106634;1282;22556;-72
2023/02/05 03:07:19;;;;;;;8.70;4.50;;;;;;;-5.64;88.88;100061.95;106604;1282;138355;-72
2023/02/05 03:10:26;;;;;;;11.70;3.40;;;;;;;-5.65;89.12;100056.55;107585;1278;22942;-72
2023/02/05 03:12:55;;;;;;;9.80;4.50;;;;;;;-5.67;88.99;100059.67;106648;1272;139588;-72
2023/02/05 03:15:22;;;;;;;8.90;4.00;;;;;;;-5.67;88.68;100061.08;106921;1280;22529;-72
2023/02/05 03:17:53;;;;;;;9.70;3.90;;;;;;;-5.68;88.92;100063.41;106532;1281;139001;-72
2023/02/05 03:20:30;;;;;;;6.90;3.70;;;;;;;-5.67;88.83;100066.03;106567;1282;22698;-72
2023/02/05 03:22:57;;;;;;;7.90;4.40;;;;;;;-5.67;88.76;100057.19;106441;1265;24326;-72
2023/02/05 03:25:28;;;;;;;9.50;4.30;;;;;;;-5.67;88.67;100058.98;106382;1284;138460;-72
2023/02/05 03:27:57;;;;;;;6.00;3.80;;;;;;;-5.68;88.43;100055.48;106900;1284;22538;-72
2023/02/05 03:30:31;;;;;;;8.40;4.00;;;;;;;-5.69;88.66;100061.38;106411;1284;138501;-72
2023/02/05 03:33:04;;;;;;;11.40;4.00;;;;;;;-5.71;88.46;100058.83;106588;1264;22571;-72
2023/02/05 03:35:52;;;;;;;6.30;3.30;;;;;;;-5.75;88.47;100061.72;106515;1282;139082;-72
2023/02/05 03:38:37;;;;;;;5.50;3.00;;;;;;;-5.80;88.11;100064.89;106596;1276;21725;-72
2023/02/05 03:41:54;;;;;;;5.80;3.30;;;;;;;-5.86;88.11;100069.05;106726;1264;22536;-72
2023/02/05 03:44:25;;;;;;;5.50;3.10;;;;;;;-5.95;88.36;100069.94;106530;1274;22534;-72
2023/02/05 03:46:55;;;;;;;6.30;3.20;;;;;;;-6.00;87.90;100069.81;106654;1282;22588;-72
2023/02/05 03:49:39;;;;;;;5.80;3.00;;;;;;;-6.07;88.02;100068.86;106335;1276;138583;-72
2023/02/05 03:52:19;;;;;;;6.50;3.10;;;;;;;-6.16;87.94;100067.81;106628;1282;22535;-72
2023/02/05 03:54:49;;;;;;;8.50;3.50;;;;;;;-6.24;88.10;100061.61;106682;1280;138774;-72
2023/02/05 03:57:56;;;;;;;7.30;3.10;;;;;;;-6.30;88.09;100065.16;106977;1279;23432;-72
2023/02/05 04:00:25;;;;;;;4.30;2.60;;;;;;;-6.36;88.43;100066.26;106563;1267;139053;-72
2023/02/05 04:02:52;;;;;;;4.40;2.60;;;;;;;-6.40;88.43;100067.55;106849;1273;25443;-72
2023/02/05 04:05:21;;;;;;;5.10;2.60;;;;;;;-6.42;88.38;100064.89;106604;1279;22575;-72
2023/02/05 04:07:50;;;;;;;6.20;3.20;;;;;;;-6.43;88.58;100066.33;106635;1283;22652;-72
2023/02/05 04:10:18;;;;;;;6.30;3.40;;;;;;;-6.44;88.67;100065.68;106375;1283;22664;-72
2023/02/05 04:12:46;;;;;;;4.80;3.00;;;;;;;-6.41;88.87;100061.14;106673;1260;138342;-72
2023/02/05 04:15:13;;;;;;;5.90;3.10;;;;;;;-6.39;89.03;100060.27;106591;1283;24319;-72
2023/02/05 04:17:43;;;;;;;5.70;3.10;;;;;;;-6.37;88.99;100060.66;106191;1282;522608;-72
2023/02/05 04:20:10;;;;;;;6.50;2.70;;;;;;;-6.36;88.70;100055.31;106605;1283;23370;-72
2023/02/05 04:22:38;;;;;;;6.00;2.70;;;;;;;-6.36;88.57;100054.08;106809;1261;24237;-72
2023/02/05 04:25:05;;;;;;;5.40;2.90;;;;;;;-6.37;88.54;100059.11;106376;1265;138908;-72
2023/02/05 04:27:33;;;;;;;6.00;3.10;;;;;;;-6.39;88.16;100061.52;107117;1280;22544;-72
2023/02/05 04:30:01;;;;;;;5.30;3.00;;;;;;;-6.42;88.19;100059.02;106249;1284;138650;-72
2023/02/05 04:32:29;;;;;;;5.40;3.00;;;;;;;-6.47;87.89;100063.06;106377;1284;22558;-72
2023/02/05 04:34:56;;;;;;;6.40;3.60;;;;;;;-6.53;87.71;100062.70;106561;1283;22557;-72
2023/02/05 04:37:24;;;;;;;6.30;2.90;;;;;;;-6.59;87.61;100065.21;106485;1282;138402;-72
2023/02/05 04:39:51;;;;;;;6.90;3.30;;;;;;;-6.65;87.48;100066.29;106635;1282;22937;-72
2023/02/05 04:42:18;;;;;;;6.20;3.40;;;;;;;-6.71;87.41;100067.55;106738;1280;138602;-72
2023/02/05 04:44:45;;;;;;;6.00;3.50;;;;;;;-6.77;87.62;100064.59;106508;1267;22533;-72
2023/02/05 04:47:12;;;;;;;5.40;3.00;;;;;;;-6.83;87.52;100064.61;106641;1283;22656;-72
2023/02/05 04:49:40;;;;;;;4.40;2.70;;;;;;;-6.89;87.34;100064.78;106514;1277;138583;-72
2023/02/05 04:52:08;;;;;;;6.50;3.20;;;;;;;-6.96;87.34;100065.92;106634;1282;22536;-72
2023/02/05 04:54:36;;;;;;;6.00;2.70;;;;;;;-7.02;87.59;100075.12;106522;1261;138476;-72
2023/02/05 04:57:03;;;;;;;7.00;3.40;;;;;;;-7.07;87.62;100081.06;106606;1283;25726;-72
2023/02/05 04:59:30;;;;;;;7.00;3.10;;;;;;;-7.11;87.91;100085.52;106441;1281;139151;-72
2023/02/05 05:01:58;;;;;;;4.50;1.90;;;;;;;-7.12;88.07;100084.37;106668;1281;24272;-72
2023/02/05 05:04:25;;;;;;;6.10;3.10;;;;;;;-7.13;88.07;100086.54;106823;1280;23896;-72
2023/02/05 05:06:52;;;;;;;5.40;2.70;;;;;;;-7.14;88.23;100084.44;106338;1270;138479;-72
2023/02/05 05:09:22;;;;;;;5.60;2.60;;;;;;;-7.13;88.47;100082.30;106573;1282;22533;-72
2023/02/05 05:11:51;;;;;;;5.60;2.90;;;;;;;-7.14;88.29;100082.33;106490;1280;138561;-72
2023/02/05 05:14:18;;;;;;;5.00;3.20;;;;;;;-7.12;88.29;100083.82;106626;1279;25607;-72
2023/02/05 05:16:45;;;;;;;4.90;2.80;;;;;;;-7.12;88.52;100084.36;106713;1281;24186;-72
2023/02/05 05:19:12;;;;;;;3.30;2.60;;;;;;;-7.13;88.74;100080.00;106585;1281;138595;-72
2023/02/05 05:21:39;;;;;;;8.80;2.70;;;;;;;-7.16;88.27;100079.13;106739;1281;22606;-72
2023/02/05 05:24:06;;;;;;;6.10;3.00;;;;;;;-7.17;88.53;100074.61;106560;1260;138792;-72
2023/02/05 05:26:34;;;;;;;5.60;2.60;;;;;;;-7.19;88.25;100074.54;106591;1282;25500;-72
2023/02/05 05:29:01;;;;;;;4.70;2.50;;;;;;;-7.21;88.22;100082.10;106671;1280;22536;-72
2023/02/05 05:31:27;;;;;;;6.50;3.10;;;;;;;-7.26;88.18;100090.11;106562;1279;138709;-72
2023/02/05 05:33:54;;;;;;;6.40;2.90;;;;;;;-7.31;87.74;100093.45;106653;1261;24224;-73
2023/02/05 05:36:21;;;;;;;6.90;2.80;;;;;;;-7.37;87.95;100099.98;106630;1263;139070;-71
2023/02/05 05:38:48;;;;;;;6.90;3.40;;;;;;;-7.43;87.98;100105.60;106630;1278;22955;-72
2023/02/05 05:44:08;;;;;;;6.90;3.40;;;;;;;-7.57;88.24;100122.79;106682;1279;24564;-73
2023/02/05 05:46:35;;;;;;;9.60;3.60;;;;;;;-7.63;88.24;100126.12;106387;1283;24299;-72
2023/02/05 05:49:03;;;;;;;6.40;3.90;;;;;;;-7.69;88.46;100128.20;106317;1283;138666;-72
2023/02/05 05:51:31;;;;;;;9.50;3.70;;;;;;;-7.73;89.07;100136.21;106495;1283;24237;-72
2023/02/05 05:53:58;;;;;;;9.00;4.00;;;;;;;-7.77;88.79;100134.49;106523;1283;139890;-72
2023/02/05 05:56:25;;;;;;;7.80;3.80;;;;;;;-7.81;89.52;100140.19;106339;1267;22818;-72
2023/02/05 05:58:52;;;;;;;9.20;4.00;;;;;;;-7.83;89.09;100136.60;106424;1282;22729;-72
2023/02/05 06:01:21;;;;;;;6.00;3.90;;;;;;;-7.86;89.00;100135.17;106248;1282;140298;-71
2023/02/05 06:03:49;;;;;;;4.90;3.00;;;;;;;-7.89;89.41;100136.24;106665;1275;25291;-72
2023/02/05 06:06:16;;;;;;;6.10;3.30;;;;;;;-7.91;90.38;100136.15;106500;1263;138363;-72
2023/02/05 06:08:43;;;;;;;7.10;2.90;;;;;;;-7.89;90.16;100141.87;106308;1281;22785;-72
2023/02/05 06:11:11;;;;;;;7.60;3.70;;;;;;;-7.85;90.47;100144.82;106422;1281;22743;-72
2023/02/05 06:13:38;;;;;;;6.50;3.10;;;;;;;-7.77;90.59;100147.02;106417;1280;139012;-71
2023/02/05 06:16:05;;;;;;;7.00;3.30;;;;;;;-7.68;90.96;100152.51;106627;1264;23104;-72
2023/02/05 06:18:32;;;;;;;9.00;4.40;;;;;;;-7.59;90.63;100159.23;106539;1276;140149;-71
2023/02/05 06:21:01;;;;;;;10.50;4.70;;;;;;;-7.49;90.60;100164.47;106422;1276;22551;-72
2023/02/05 06:23:28;;;;;;;12.40;5.20;;;;;;;-7.38;91.04;100169.00;106480;1282;22509;-72
2023/02/05 06:25:55;;;;;;;12.20;4.90;;;;;;;-7.27;90.93;100171.02;106410;1265;22554;-71
2023/02/05 06:28:22;;;;;;;12.70;4.50;;;;;;;-7.17;90.78;100170.94;106444;1274;23031;-72
2023/02/05 06:30:49;;;;;;;9.00;4.30;;;;;;;-7.07;90.40;100170.91;106413;1281;139963;-72
2023/02/05 06:33:16;;;;;;;11.00;4.90;;;;;;;-6.99;90.17;100172.88;106521;1281;25353;-72
2023/02/05 06:35:43;;;;;;;8.50;4.00;;;;;;;-6.90;90.13;100172.73;106242;1269;138886;-72
2023/02/05 06:38:10;;;;;;;12.10;4.40;;;;;;;-6.81;90.01;100178.38;106413;1275;24908;-72
2023/02/05 06:40:37;;;;;;;8.80;4.40;;;;;;;-6.72;89.82;100178.69;106513;1280;22641;-72
2023/02/05 06:43:04;;;;;;;8.70;4.10;;;;;;;-6.61;89.78;100179.11;106350;1279;138363;-72
2023/02/05 06:45:31;;;;;;;9.30;3.90;;;;;;;-6.51;89.57;100183.46;106423;1260;22554;-72
2023/02/05 06:47:58;;;;;;;8.00;4.20;;;;;;;-6.41;89.27;100190.64;106376;1282;138755;-72
2023/02/05 06:50:25;;;;;;;9.40;4.90;;;;;;;-6.31;89.30;100194.58;106473;1273;23780;-72
2023/02/05 06:52:52;;;;;;;10.40;5.10;;;;;;;-6.20;88.97;100190.57;106413;1284;22545;-72
2023/02/05 06:55:19;;;;;;;9.90;5.00;;;;;;;-6.10;88.67;100191.19;107348;1281;138561;-73
2023/02/05 06:57:46;;;;;;;6.70;3.40;;;;;;;-6.01;87.85;100190.09;108097;1261;22663;-72
2023/02/05 07:00:15;;;;;;;9.80;4.70;;;;;;;-5.92;87.36;100185.61;106951;1279;139656;-72
2023/02/05 07:02:42;;;;;;;7.70;4.30;;;;;;;-5.81;87.62;100187.22;108172;1282;22610;-72
2023/02/05 07:05:10;;;;;;;5.60;3.30;;;;;;;-5.72;87.15;100183.45;106689;1279;23917;-72
2023/02/05 07:07:38;;;;;;;8.00;3.20;;;;;;;-5.65;86.33;100179.29;106478;1263;138502;-72
2023/02/05 07:10:05;;;;;;;6.80;3.50;;;;;;;-5.58;86.61;100186.06;106839;1281;22504;-72
2023/02/05 07:12:32;;;;;;;11.80;4.80;;;;;;;-5.45;87.00;100192.90;106740;1282;138469;-72
2023/02/05 07:14:59;;;;;;;12.00;7.30;;;;;;;-5.33;87.41;100200.03;106576;1276;22546;-73
2023/02/05 07:17:26;;;;;;;14.80;7.60;;;;;;;-5.19;87.15;100208.13;107090;1264;22675;-72
2023/02/05 07:19:53;;;;;;;15.90;8.50;;;;;;;-5.05;87.29;100212.36;106388;1281;139831;-72
2023/02/05 07:22:20;;;;;;;12.20;7.70;;;;;;;-4.91;87.45;100216.42;106644;1276;25515;-72
2023/02/05 07:24:47;;;;;;;12.70;6.70;;;;;;;-4.77;87.49;100224.35;106413;1281;139115;-72
2023/02/05 07:27:14;;;;;;;10.40;6.70;;;;;;;-4.64;87.19;100228.38;107024;1257;22590;-73
2023/02/05 07:29:41;;;;;;;12.30;6.70;;;;;;;-4.50;86.96;100232.29;106411;1276;138700;-72
2023/02/05 07:32:08;;;;;;;12.70;6.70;;;;;;;-4.38;86.82;100238.69;106627;1280;22799;-72
2023/02/05 07:34:35;;;;;;;16.70;9.10;;;;;;;-4.27;86.37;100239.53;106571;1275;25439;-72
2023/02/05 07:37:02;;;;;;;14.00;7.30;;;;;;;-4.16;85.67;100251.06;106270;1268;138521;-72
2023/02/05 07:39:29;;;;;;;20.00;8.90;;;;;;;-4.16;83.87;100257.40;107029;1275;23036;-72
2023/02/05 07:41:56;;;;;;;14.40;7.50;;;;;;;-4.14;84.09;100255.36;106884;1276;139255;-73
2023/02/05 07:44:28;;;;;;;13.10;6.90;;;;;;;-4.12;83.42;100260.48;106547;1284;23355;-72
2023/02/05 07:46:55;;;;;;;14.00;7.30;;;;;;;-4.10;82.71;100255.79;106529;1260;22556;-72
2023/02/05 07:49:22;;;;;;;10.10;4.80;;;;;;;-4.09;82.35;100255.88;106490;1269;138504;-73
2023/02/05 07:51:49;;;;;;;8.50;4.70;;;;;;;-4.10;81.68;100259.52;106571;1276;25018;-73
2023/02/05 07:54:16;;;;;;;10.40;5.60;;;;;;;-4.13;81.32;100259.36;106472;1278;139140;-72
2023/02/05 07:56:43;;;;;;;11.20;5.10;;;;;;;-4.17;81.75;100261.05;106605;1275;22543;-73
2023/02/05 07:59:10;;;;;;;12.00;5.90;;;;;;;-4.20;81.00;100260.36;106463;1267;25326;-72
2023/02/05 08:01:37;;;;;;;12.40;6.10;;;;;;;-4.22;81.13;100268.47;106197;1275;139836;-72
2023/02/05 08:04:04;;;;;;;10.20;5.60;;;;;;;-4.22;81.52;100263.30;106295;1283;22582;-72
2023/02/05 08:06:34;;;;;;;9.00;5.20;;;;;;;-4.21;81.22;100264.70;106350;1284;139578;-72
2023/02/05 08:09:01;;;;;;;15.80;6.50;;;;;;;-4.18;81.20;100269.97;107091;1282;22690;-72
2023/02/05 08:11:28;;;;;;;12.00;6.20;;;;;;;-4.13;81.38;100269.45;106587;1282;22653;-72
2023/02/05 08:13:55;;;;;;;14.10;6.50;;;;;;;-4.10;80.80;100269.02;106555;1282;22550;-72
2023/02/05 08:16:22;;;;;;;11.40;5.70;;;;;;;-4.08;80.61;100268.52;106445;1283;25056;-72
2023/02/05 08:18:50;;;;;;;11.80;5.40;;;;;;;-4.02;80.74;100271.50;106657;1265;138621;-72
2023/02/05 08:21:18;;;;;;;10.10;5.80;;;;;;;-3.92;81.06;100277.56;107049;1284;22546;-72
2023/02/05 08:23:45;;;;;;;12.20;5.40;;;;;;;-3.85;80.86;100277.61;106263;1283;138846;-72
2023/02/05 08:26:13;;;;;;;13.10;6.80;;;;;;;-3.79;80.07;100273.84;106347;1283;22560;-73
2023/02/05 08:28:41;;;;;;;10.70;5.70;;;;;;;-3.75;79.86;100269.11;106546;1264;25375;-73
2023/02/05 08:31:14;;;;;;;12.50;7.10;;;;;;;-3.72;79.97;100266.02;106791;1275;138721;-73
2023/02/05 08:33:42;;;;;;;10.80;4.90;;;;;;;-3.64;80.49;100261.42;107151;1275;22550;-72
2023/02/05 08:36:10;;;;;;;9.30;5.00;;;;;;;-3.53;80.06;100262.21;107847;1276;140458;-73
2023/02/05 08:38:37;;;;;;;9.50;4.60;;;;;;;-3.39;79.42;100266.93;106606;1276;23903;-73
2023/02/05 08:41:12;;;;;;;9.20;4.30;;;;;;;-3.30;78.06;100265.88;106926;1278;24225;-73
2023/02/05 08:43:41;;;;;;;9.00;4.40;;;;;;;-3.24;77.74;100268.80;106409;1278;138411;-73
2023/02/05 08:46:10;;;;;;;;;;;;;;;-3.17;76.31;100271.20;106799;1281;22519;-72
2023/02/05 08:48:37;;;;;;;9.60;4.70;;;;;;;-3.25;74.00;100271.73;106408;1267;124779;-72
2023/02/05 08:51:04;;;;;;;8.80;4.10;;;;;;;-3.32;74.53;100270.08;106383;1284;22536;-72
2023/02/05 08:53:32;;;;;;;7.00;3.10;;;;;;;-3.32;74.16;100275.27;107204;1278;140034;-73
2023/02/05 08:56:01;;;;;;;6.10;3.30;;;;;;;-3.37;73.42;100277.98;106327;1276;23013;-73
2023/02/05 08:58:28;;;;;;;7.80;3.60;;;;;;;-3.45;72.78;100276.75;108032;1268;24628;-73
2023/02/05 09:01:14;;;;;;;10.00;4.70;;;;;;;-3.48;73.46;100282.95;107942;1276;138836;-73
2023/02/05 09:03:42;;;;;;;5.50;3.20;;;;;;;-3.49;72.88;100285.00;107023;1282;22544;-73
2023/02/05 09:06:14;;;;;;;3.20;2.30;;;;;;;-3.56;71.09;100288.91;106256;1284;138661;-72
2023/02/05 09:08:41;;;;;;;2.10;1.60;;;;;;;-3.64;70.24;100292.80;106816;1263;22593;-73
2023/02/05 09:11:09;;;;;;;3.80;2.00;;;;;;;-3.68;69.72;100298.96;107305;1275;22344;-73
2023/02/05 09:13:37;;;;;;;3.20;2.10;;;;;;;-3.71;71.11;100305.02;107962;1267;138875;-73
2023/02/05 09:16:04;;;;;;;3.80;2.60;;;;;;;-3.69;71.38;100301.52;107536;1275;25031;-73
2023/02/05 09:18:31;;;;;;;2.90;1.80;;;;;;;-3.65;71.49;100302.48;107197;1262;138697;-73
2023/02/05 09:20:58;;;;;;;6.70;3.00;;;;;;;-3.69;70.02;100304.86;107056;1269;24370;-73
2023/02/05 09:23:25;;;;;;;3.00;2.10;;;;;;;-3.73;70.93;100306.41;106892;1277;23943;-73
2023/02/05 09:25:52;;;;;;;4.20;2.20;;;;;;;-3.81;70.16;100309.60;106610;1276;138847;-73
2023/02/05 09:28:18;;;;;;;4.30;2.40;;;;;;;-3.94;69.49;100309.48;107013;1275;25370;-73
2023/02/05 09:30:45;;;;;;;4.90;2.20;;;;;;;-4.06;70.42;100306.23;107830;1266;139616;-73
2023/02/05 09:33:13;;;;;;;4.20;2.10;;;;;;;-4.18;69.98;100310.23;108943;1276;22566;-73
2023/02/05 09:35:41;;;;;;;6.90;3.10;;;;;;;-4.31;70.38;100315.50;108211;1275;139254;-73
2023/02/05 09:38:12;;;;;;;4.70;2.80;;;;;;;-4.39;71.27;100315.68;106428;1276;23106;-72
2023/02/05 09:40:47;;;;;;;7.10;3.10;;;;;;;-4.38;71.63;100317.42;107056;1265;22700;-73
2023/02/05 09:43:55;;;;;;;7.60;3.60;;;;;;;-4.38;72.08;100321.52;107129;1275;139606;-73
2023/02/05 09:46:45;;;;;;;3.20;2.30;;;;;;;-4.41;71.95;100324.69;107568;1275;22575;-73
2023/02/05 09:49:18;;;;;;;2.60;1.80;;;;;;;-4.48;70.50;100328.89;106898;1272;138915;-73
2023/02/05 09:51:50;;;;;;;4.40;2.30;;;;;;;-4.55;71.07;100327.05;107962;1280;23825;-74
2023/02/05 09:54:34;;;;;;;5.60;2.80;;;;;;;-4.59;71.52;100328.70;107995;1276;139801;-72
2023/02/05 09:57:10;;;;;;;7.80;3.50;;;;;;;-4.55;72.60;100328.17;107688;1277;22655;-73
2023/02/05 09:59:43;;;;;;;3.70;2.50;;;;;;;-4.54;72.24;100331.07;107080;1264;138683;-73
2023/02/05 10:02:28;;;;;;;4.40;1.70;;;;;;;-4.54;71.70;100324.86;106736;1282;22596;-73
2023/02/05 10:04:55;;;;;;;4.70;2.80;;;;;;;-4.56;71.11;100321.84;106581;1277;25361;-72
2023/02/05 10:07:28;;;;;;;5.30;2.60;;;;;;;-4.56;71.45;100323.06;107149;1275;138515;-73
2023/02/05 10:10:35;;;;;;;3.90;2.30;;;;;;;-4.55;71.73;100321.61;106906;1264;24268;-73
2023/02/05 10:13:05;;;;;;;5.80;2.40;;;;;;;-4.53;72.21;100318.92;107145;1287;141071;-73
2023/02/05 10:15:54;;;;;;;7.40;2.60;;;;;;;-4.48;71.49;100327.34;107505;1286;25430;-73
2023/02/05 10:18:55;;;;;;;3.90;2.70;;;;;;;-4.47;71.28;100322.64;108434;1281;140316;-73
2023/02/05 10:21:31;;;;;;;4.20;2.70;;;;;;;-4.52;71.06;100319.45;106973;1268;23311;-73
2023/02/05 10:24:15;;;;;;;5.30;2.80;;;;;;;-4.53;71.69;100317.70;106373;1280;138886;-73
2023/02/05 10:26:51;;;;;;;4.10;2.40;;;;;;;-4.52;72.03;100319.80;106770;1287;25334;-73
2023/02/05 10:29:18;;;;;;;5.30;3.10;;;;;;;-4.49;72.33;100325.05;106149;1280;22584;-73
2023/02/05 10:32:14;;;;;;;7.40;3.10;;;;;;;-4.42;72.33;100327.27;106404;1271;138455;-73
2023/02/05 10:35:04;;;;;;;7.60;3.90;;;;;;;-4.41;72.75;100327.02;106166;1277;22571;-73
2023/02/05 10:37:57;;;;;;;11.00;4.60;;;;;;;-4.39;72.93;100329.02;106610;1280;139432;-73
2023/02/05 10:40:38;;;;;;;5.60;3.40;;;;;;;-4.36;73.43;100326.17;107291;1266;22558;-73
2023/02/05 10:43:17;;;;;;;6.20;3.60;;;;;;;-4.35;73.70;100324.84;106090;1287;139354;-73
2023/02/05 10:45:44;;;;;;;10.40;4.60;;;;;;;-4.34;73.48;100317.30;106284;1287;22563;-73
2023/02/05 10:48:21;;;;;;;9.80;3.90;;;;;;;-4.34;73.84;100312.73;106472;1276;139182;-73
2023/02/05 10:51:08;;;;;;;7.10;3.50;;;;;;;-4.35;74.40;100312.41;106524;1265;25366;-73
2023/02/05 10:53:35;;;;;;;8.30;3.80;;;;;;;-4.37;74.40;100309.58;106590;1275;138880;-73
2023/02/05 10:56:04;;;;;;;8.10;4.40;;;;;;;-4.40;74.28;100311.89;106555;1276;24361;-72
2023/02/05 10:58:47;;;;;;;7.10;3.30;;;;;;;-4.45;74.74;100315.21;106485;1278;22550;-73
2023/02/05 11:01:17;;;;;;;6.60;3.30;;;;;;;-4.51;73.58;100317.04;106455;1281;138844;-73
2023/02/05 11:03:50;;;;;;;5.40;2.90;;;;;;;-4.57;73.11;100316.17;106690;1278;22658;-74
2023/02/05 11:06:19;;;;;;;6.10;3.40;;;;;;;-4.58;73.12;100309.00;108128;1276;140620;-74
2023/02/05 11:08:47;;;;;;;;;;;;;;;-4.51;73.82;100306.95;107508;1276;22717;-73
2023/02/05 11:11:24;;;;;;;6.90;3.40;;;;;;;-4.35;74.06;100304.30;107981;1265;22576;-74
2023/02/05 11:14:01;;;;;;;9.60;4.50;;;;;;;-4.15;73.58;100306.15;107148;1271;138923;-74
2023/02/05 11:16:54;;;;;;;8.20;4.20;;;;;;;-3.97;73.05;100297.27;106962;1275;25253;-73
2023/02/05 11:19:25;;;;;;;13.90;5.60;;;;;;;-3.76;72.11;100295.82;106341;1280;138369;-74
2023/02/05 11:21:55;;;;;;;7.30;4.70;;;;;;;-3.61;71.61;100283.73;106435;1265;22761;-73
2023/02/05 11:24:40;;;;;;;7.00;3.90;;;;;;;-3.45;71.34;100280.99;106288;1276;138913;-74
2023/02/05 11:27:27;;;;;;;6.70;3.50;;;;;;;-3.32;69.87;100285.23;106607;1281;25420;-73
2023/02/05 11:29:58;;;;;;;6.20;3.30;;;;;;;-3.23;69.29;100287.39;107194;1276;139034;-73
2023/02/05 11:32:37;;;;;;;6.60;3.50;;;;;;;-3.18;67.76;100288.52;106568;1265;22677;-73
2023/02/05 11:35:20;;;;;;;7.00;3.60;;;;;;;-3.26;65.82;100288.14;107198;1278;24200;-73